createdAt,value
2022-08-01T00:00:18.727Z,2.1
2022-08-01T00:02:18.851Z,2.2
2022-08-01T00:04:19.072Z,1.9
2022-08-01T00:06:19.313Z,2.1
2022-08-01T00:08:19.527Z,1.8
2022-08-01T00:10:20.094Z,1.8
2022-08-01T00:12:19.963Z,1.9
2022-08-01T00:14:20.450Z,1.9
2022-08-01T00:16:20.498Z,1.7
2022-08-01T00:18:20.937Z,2.1
2022-08-01T00:20:20.847Z,2.1
2022-08-01T00:22:20.963Z,1.5
2022-08-01T00:24:21.275Z,1.5
2022-08-01T00:26:21.481Z,1.5
2022-08-01T00:28:21.744Z,1.6
2022-08-01T00:30:21.869Z,1.6
2022-08-01T00:32:22.152Z,2
2022-08-01T00:34:22.338Z,1.8
2022-08-01T00:36:22.526Z,1.7
2022-08-01T00:38:22.870Z,1.9
2022-08-01T00:40:23.340Z,1.6
2022-08-01T00:42:23.281Z,2
2022-08-01T00:44:23.464Z,1.9
2022-08-01T00:46:23.726Z,1.7
2022-08-01T00:48:23.872Z,1.6
2022-08-01T00:50:24.850Z,1.7
2022-08-01T00:52:24.367Z,1.9
2022-08-01T00:54:26.232Z,2
2022-08-01T00:56:26.487Z,1.7
2022-08-01T00:58:25.403Z,2
2022-08-01T01:00:27.284Z,1.6
2022-08-01T01:02:25.488Z,1.6
2022-08-01T01:04:25.674Z,1.8
2022-08-01T01:06:34.430Z,1.6
2022-08-01T01:08:34.864Z,1.7
2022-08-01T01:10:32.790Z,1.9
2022-08-01T01:12:37.346Z,1.5
2022-08-01T01:14:33.889Z,1.8
2022-08-01T01:16:30.845Z,1.6
2022-08-01T01:18:33.203Z,2.1
2022-08-01T01:20:32.270Z,1.6
2022-08-01T01:22:42.741Z,1.5
2022-08-01T01:24:38.106Z,1.5
2022-08-01T01:26:40.433Z,1.6
2022-08-01T01:28:35.498Z,1.7
2022-08-01T01:30:31.037Z,1.7
2022-08-01T01:32:33.365Z,1.5
2022-08-01T01:34:32.218Z,1.4
2022-08-01T01:36:31.441Z,1.6
2022-08-01T01:38:33.989Z,1.4
2022-08-01T01:40:30.939Z,1.5
2022-08-01T01:42:32.333Z,1.5
2022-08-01T01:44:31.365Z,1.2
2022-08-01T01:46:31.551Z,1.2
2022-08-01T01:48:31.602Z,1.2
2022-08-01T01:50:32.578Z,1.4
2022-08-01T01:52:32.726Z,1.2
2022-08-01T01:54:34.145Z,1.3
2022-08-01T01:56:32.937Z,1.4
2022-08-01T01:58:34.248Z,1.5
2022-08-01T02:00:33.169Z,1.2
2022-08-01T02:02:33.227Z,1.7
2022-08-01T02:04:33.107Z,1.3
2022-08-01T02:06:33.478Z,1.5
2022-08-01T02:08:35.107Z,1.4
2022-08-01T02:10:34.289Z,1.5
2022-08-01T02:12:36.603Z,1.3
2022-08-01T02:14:34.978Z,2.1
2022-08-01T02:16:36.091Z,1.6
2022-08-01T02:18:33.694Z,1.4
2022-08-01T02:20:37.225Z,1.4
2022-08-01T02:22:40.748Z,1.2
2022-08-01T02:24:40.878Z,1.5
2022-08-01T02:26:38.715Z,1.5
2022-08-01T02:28:41.435Z,1.5
2022-08-01T02:30:36.686Z,1.6
2022-08-01T02:32:38.788Z,1.6
2022-08-01T02:34:35.680Z,1.3
2022-08-01T02:36:36.653Z,1.5
2022-08-01T02:38:41.084Z,1.8
2022-08-01T02:40:40.642Z,1.7
2022-08-01T02:42:39.077Z,2.7
2022-08-01T02:44:41.790Z,2.5
2022-08-01T02:46:43.808Z,1.9
2022-08-01T02:48:40.359Z,1.7
2022-08-01T02:50:38.960Z,1.3
2022-08-01T02:52:40.119Z,1.6
2022-08-01T02:54:38.738Z,1.3
2022-08-01T02:56:39.389Z,1.3
2022-08-01T02:58:39.611Z,1.6
2022-08-01T03:00:40.116Z,1.6
2022-08-01T03:02:39.943Z,1.5
2022-08-01T03:04:40.630Z,1.7
2022-08-01T03:06:42.395Z,1.3
2022-08-01T03:08:39.817Z,1.3
2022-08-01T03:10:42.279Z,1.5
2022-08-01T03:12:40.700Z,1.6
2022-08-01T03:14:42.404Z,1.6
2022-08-01T03:16:43.494Z,1.6
2022-08-01T03:18:41.922Z,1.2
2022-08-01T03:20:42.046Z,1.3
2022-08-01T03:22:42.705Z,1.4
2022-08-01T03:24:43.097Z,1.5
2022-08-01T03:26:42.911Z,1.7
2022-08-01T03:28:44.579Z,1.3
2022-08-01T03:30:43.333Z,1.1
2022-08-01T03:32:42.533Z,7.6
2022-08-01T03:34:42.762Z,3.8
2022-08-01T03:36:49.948Z,1.1
2022-08-01T03:38:45.864Z,1.8
2022-08-01T03:40:47.993Z,1.2
2022-08-01T03:42:48.752Z,1.4
2022-08-01T03:44:50.625Z,1
2022-08-01T03:46:48.511Z,1.1
2022-08-01T03:48:49.324Z,1.2
2022-08-01T03:50:48.818Z,1.8
2022-08-01T03:52:49.380Z,1.4
2022-08-01T03:54:49.494Z,1.4
2022-08-01T03:56:48.620Z,1.3
2022-08-01T03:58:50.178Z,1.4
2022-08-01T04:00:49.393Z,1.3
2022-08-01T04:02:49.185Z,1.7
2022-08-01T04:04:48.779Z,1.7
2022-08-01T04:06:49.178Z,1.4
2022-08-01T04:08:49.974Z,1.4
2022-08-01T04:10:50.526Z,1.4
2022-08-01T04:12:50.770Z,1.6
2022-08-01T04:14:51.306Z,1.7
2022-08-01T04:16:51.893Z,1.6
2022-08-01T04:18:52.734Z,1.4
2022-08-01T04:20:53.269Z,1.4
2022-08-01T04:22:53.693Z,1.4
2022-08-01T04:24:57.435Z,1.4
2022-08-01T04:26:55.617Z,1.7
2022-08-01T04:28:56.580Z,1.5
2022-08-01T04:31:01.773Z,2.1
2022-08-01T04:32:59.446Z,2.1
2022-08-01T04:35:00.242Z,2.3
2022-08-01T04:36:58.829Z,1.8
2022-08-01T04:39:01.523Z,1.8
2022-08-01T04:41:08.572Z,2
2022-08-01T04:43:00.770Z,1.8
2022-08-01T04:45:01.025Z,1.7
2022-08-01T04:47:03.137Z,2
2022-08-01T04:49:05.017Z,2.1
2022-08-01T04:51:03.231Z,1.8
2022-08-01T04:53:03.811Z,2.4
2022-08-01T04:55:05.636Z,1.5
2022-08-01T04:57:05.759Z,1.7
2022-08-01T04:59:05.533Z,1.7
2022-08-01T05:01:06.335Z,1.8
2022-08-01T05:03:06.988Z,1.6
2022-08-01T05:05:08.527Z,1.6
2022-08-01T05:07:09.004Z,2.1
2022-08-01T05:09:09.061Z,1.5
2022-08-01T05:11:09.657Z,1.8
2022-08-01T05:13:10.407Z,1.7
2022-08-01T05:15:15.487Z,1.7
2022-08-01T05:17:12.113Z,1.6
2022-08-01T05:19:12.451Z,1.4
2022-08-01T05:21:13.109Z,1.8
2022-08-01T05:23:41.758Z,2.1
2022-08-01T05:25:20.342Z,1.4
2022-08-01T05:27:15.632Z,1.2
2022-08-01T05:29:16.181Z,1.5
2022-08-01T05:31:16.773Z,1.3
2022-08-01T05:33:17.352Z,1.2
2022-08-01T05:35:18.066Z,1.2
2022-08-01T05:37:18.736Z,1.2
2022-08-01T05:39:19.631Z,1.3
2022-08-01T05:41:20.252Z,1.3
2022-08-01T05:43:24.350Z,1.2
2022-08-01T05:45:21.658Z,1.1
2022-08-01T05:47:22.397Z,1.1
2022-08-01T05:49:23.108Z,1.1
2022-08-01T05:51:23.841Z,1.1
2022-08-01T05:53:24.534Z,1.1
2022-08-01T05:55:25.255Z,1.1
2022-08-01T05:57:25.896Z,1.4
2022-08-01T05:59:26.721Z,1.1
2022-08-01T06:01:27.402Z,1
2022-08-01T06:03:28.083Z,0.9
2022-08-01T06:05:28.791Z,1.1
2022-08-01T06:07:29.628Z,1.1
2022-08-01T06:09:30.251Z,1
2022-08-01T06:11:31.053Z,1
2022-08-01T06:13:31.804Z,1
2022-08-01T06:15:33.001Z,1.4
2022-08-01T06:17:33.331Z,1.4
2022-08-01T06:19:33.884Z,1
2022-08-01T06:21:34.726Z,1.1
2022-08-01T06:23:35.369Z,0.9
2022-08-01T06:25:36.360Z,1
2022-08-01T06:27:36.970Z,0.8
2022-08-01T06:29:37.471Z,0.9
2022-08-01T06:31:38.226Z,0.9
2022-08-01T06:33:38.975Z,0.9
2022-08-01T06:35:39.719Z,0.9
2022-08-01T06:37:40.527Z,1.4
2022-08-01T06:39:41.063Z,0.7
2022-08-01T06:41:41.809Z,0.9
2022-08-01T06:43:42.992Z,1.1
2022-08-01T06:45:43.236Z,0.9
2022-08-01T06:47:45.535Z,1.1
2022-08-01T06:49:45.314Z,0.8
2022-08-01T06:51:45.822Z,0.9
2022-08-01T06:53:45.999Z,0.8
2022-08-01T06:55:46.693Z,1.1
2022-08-01T06:57:48.617Z,0.9
2022-08-01T06:59:54.501Z,1.2
2022-08-01T07:01:48.737Z,1.1
2022-08-01T07:03:54.688Z,0.9
2022-08-01T07:05:50.109Z,0.8
2022-08-01T07:07:51.197Z,1.1
2022-08-01T07:09:51.470Z,0.9
2022-08-01T07:11:52.376Z,0.8
2022-08-01T07:13:52.831Z,1
2022-08-01T07:15:53.920Z,0.8
2022-08-01T07:17:54.299Z,1
2022-08-01T07:19:54.934Z,0.9
2022-08-01T07:21:55.564Z,1.1
2022-08-01T07:23:56.237Z,1.1
2022-08-01T07:25:59.396Z,0.9
2022-08-01T07:27:57.999Z,1
2022-08-01T07:29:58.128Z,0.8
2022-08-01T07:31:59.310Z,0.9
2022-08-01T07:33:59.297Z,1.2
2022-08-01T07:35:59.987Z,1
2022-08-01T07:38:00.577Z,1.4
2022-08-01T07:40:01.200Z,1
2022-08-01T07:42:07.509Z,0.8
2022-08-01T07:44:04.798Z,0.8
2022-08-01T07:46:03.774Z,1.2
2022-08-01T07:48:04.299Z,1
2022-08-01T07:50:06.018Z,0.7
2022-08-01T07:52:04.820Z,0.9
2022-08-01T07:54:05.401Z,1
2022-08-01T07:56:06.840Z,1.1
2022-08-01T07:58:06.564Z,0.6
2022-08-01T08:00:08.077Z,0.9
2022-08-01T08:02:07.906Z,0.9
2022-08-01T08:04:08.311Z,0.9
2022-08-01T08:06:08.874Z,0.7
2022-08-01T08:08:09.632Z,1.1
2022-08-01T08:10:10.166Z,1
2022-08-01T08:12:10.760Z,1
2022-08-01T08:14:11.459Z,0.9
2022-08-01T08:16:11.701Z,0.8
2022-08-01T08:18:12.344Z,1.1
2022-08-01T08:20:12.974Z,1.1
2022-08-01T08:22:13.359Z,1.2
2022-08-01T08:24:14.067Z,0.8
2022-08-01T08:26:14.555Z,0.9
2022-08-01T08:28:15.347Z,0.9
2022-08-01T08:30:16.108Z,0.9
2022-08-01T08:32:16.296Z,0.7
2022-08-01T08:34:16.893Z,0.6
2022-08-01T08:36:17.455Z,0.7
2022-08-01T08:38:18.028Z,0.7
2022-08-01T08:40:21.348Z,0.7
2022-08-01T08:42:19.513Z,0.9
2022-08-01T08:44:20.039Z,0.9
2022-08-01T08:46:28.217Z,1
2022-08-01T08:48:21.726Z,1.2
2022-08-01T08:50:21.860Z,0.9
2022-08-01T08:52:22.963Z,1.2
2022-08-01T08:54:31.031Z,0.8
2022-08-01T08:56:24.832Z,1.2
2022-08-01T08:58:31.866Z,1.3
2022-08-01T09:00:24.333Z,0.8
2022-08-01T09:02:24.833Z,1
2022-08-01T09:04:26.842Z,0.9
2022-08-01T09:06:25.983Z,0.8
2022-08-01T09:08:26.628Z,1
2022-08-01T09:10:27.200Z,0.6
2022-08-01T09:12:27.689Z,0.7
2022-08-01T09:14:28.499Z,1.4
2022-08-01T09:16:29.303Z,0.7
2022-08-01T09:18:31.965Z,0.9
2022-08-01T09:20:30.206Z,0.8
2022-08-01T09:22:33.977Z,1.8
2022-08-01T09:24:31.999Z,1.5
2022-08-01T09:26:34.340Z,1.5
2022-08-01T09:28:33.313Z,1.3
2022-08-01T09:30:38.487Z,1.8
2022-08-01T09:32:36.272Z,1.2
2022-08-01T09:34:34.080Z,1.3
2022-08-01T09:36:47.911Z,0.8
2022-08-01T09:38:35.304Z,1
2022-08-01T09:40:45.719Z,0.7
2022-08-01T09:42:36.357Z,0.6
2022-08-01T09:44:42.566Z,0.6
2022-08-01T09:46:49.807Z,0.6
2022-08-01T09:48:38.760Z,0.8
2022-08-01T09:50:40.736Z,0.7
2022-08-01T09:52:40.993Z,0.7
2022-08-01T09:54:39.971Z,0.7
2022-08-01T09:56:43.067Z,0.7
2022-08-01T09:59:00.034Z,0.7
2022-08-01T10:00:45.770Z,0.9
2022-08-01T10:02:41.671Z,0.9
2022-08-01T10:04:50.943Z,0.9
2022-08-01T10:06:44.737Z,0.9
2022-08-01T10:08:46.522Z,0.9
2022-08-01T10:11:08.375Z,1.1
2022-08-01T10:12:45.619Z,1
2022-08-01T10:14:50.367Z,2.3
2022-08-01T10:16:45.923Z,1.7
2022-08-01T10:18:46.763Z,1.7
2022-08-01T10:20:48.271Z,1.4
2022-08-01T10:22:47.494Z,1.3
2022-08-01T10:24:49.799Z,1
2022-08-01T10:26:51.279Z,1.5
2022-08-01T10:28:50.332Z,0.8
2022-08-01T10:30:49.619Z,0.7
2022-08-01T10:32:51.359Z,0.8
2022-08-01T10:34:51.149Z,1.3
2022-08-01T10:36:50.725Z,1.1
2022-08-01T10:38:51.707Z,1.3
2022-08-01T10:40:52.383Z,0.8
2022-08-01T10:42:53.489Z,0.8
2022-08-01T10:44:52.750Z,0.8
2022-08-01T10:46:59.805Z,0.8
2022-08-01T10:48:59.039Z,1.1
2022-08-01T10:50:58.189Z,0.9
2022-08-01T10:53:15.200Z,0.8
2022-08-01T10:55:03.285Z,0.7
2022-08-01T10:57:00.306Z,0.7
2022-08-01T10:59:11.622Z,0.6
2022-08-01T11:01:17.004Z,0.7
2022-08-01T11:02:59.956Z,0.9
2022-08-01T11:05:04.270Z,0.7
2022-08-01T11:07:06.351Z,1.3
2022-08-01T11:09:01.139Z,1.1
2022-08-01T11:11:01.135Z,0.7
2022-08-01T11:12:59.893Z,0.8
2022-08-01T11:15:30.068Z,0.7
2022-08-01T11:17:30.174Z,0.9
2022-08-01T11:19:01.729Z,0.8
2022-08-01T11:21:58.457Z,0.8
2022-08-01T11:23:19.450Z,0.7
2022-08-01T11:25:03.624Z,0.7
2022-08-01T11:27:20.589Z,0.7
2022-08-01T11:29:20.598Z,0.9
2022-08-01T11:31:27.841Z,0.8
2022-08-01T11:33:11.582Z,0.9
2022-08-01T11:35:06.008Z,1.4
2022-08-01T11:37:24.597Z,0.8
2022-08-01T11:39:17.313Z,0.8
2022-08-01T11:41:12.007Z,0.9
2022-08-01T11:43:22.310Z,0.7
2022-08-01T11:45:08.451Z,0.7
2022-08-01T11:47:10.357Z,0.7
2022-08-01T11:49:25.652Z,0.9
2022-08-01T11:51:23.863Z,1.1
2022-08-01T11:53:11.263Z,1.1
2022-08-01T11:55:11.619Z,0.7
2022-08-01T11:57:13.780Z,0.6
2022-08-01T11:59:15.283Z,0.7
2022-08-01T12:01:13.354Z,0.8
2022-08-01T12:03:20.654Z,0.8
2022-08-01T12:05:15.906Z,1
2022-08-01T12:07:14.799Z,0.8
2022-08-01T12:09:18.640Z,0.6
2022-08-01T12:11:14.968Z,0.8
2022-08-01T12:13:15.939Z,1.4
2022-08-01T12:15:16.919Z,0.8
2022-08-01T12:17:16.598Z,0.7
2022-08-01T12:19:20.419Z,0.9
2022-08-01T12:21:17.671Z,0.9
2022-08-01T12:23:18.126Z,0.8
2022-08-01T12:25:19.820Z,0.8
2022-08-01T12:27:28.295Z,1.4
2022-08-01T12:29:32.316Z,0.9
2022-08-01T12:31:31.509Z,0.6
2022-08-01T12:33:21.493Z,0.9
2022-08-01T12:35:22.813Z,0.8
2022-08-01T12:37:22.372Z,0.8
2022-08-01T12:39:22.715Z,0.7
2022-08-01T12:41:23.078Z,0.9
2022-08-01T12:43:26.959Z,0.7
2022-08-01T12:45:25.914Z,0.8
2022-08-01T12:47:24.854Z,0.8
2022-08-01T12:49:25.422Z,1.1
2022-08-01T12:51:25.880Z,2.3
2022-08-01T12:53:27.056Z,1.5
2022-08-01T12:55:33.805Z,2.2
2022-08-01T12:57:28.075Z,1.9
2022-08-01T12:59:29.040Z,0.9
2022-08-01T13:01:28.985Z,1.8
2022-08-01T13:03:29.044Z,1
2022-08-01T13:05:41.514Z,1
2022-08-01T13:07:45.664Z,1
2022-08-01T13:09:30.812Z,1
2022-08-01T13:11:31.324Z,3
2022-08-01T13:13:39.441Z,1.1
2022-08-01T13:15:35.163Z,1.1
2022-08-01T13:17:33.975Z,1.1
2022-08-01T13:19:48.031Z,1
2022-08-01T13:21:52.305Z,0.8
2022-08-01T13:24:03.006Z,0.8
2022-08-01T13:25:46.220Z,1
2022-08-01T13:27:35.552Z,1.2
2022-08-01T13:29:37.797Z,1.2
2022-08-01T13:31:38.169Z,1
2022-08-01T13:33:42.761Z,0.9
2022-08-01T13:35:37.634Z,0.8
2022-08-01T13:37:39.930Z,1.1
2022-08-01T13:39:38.715Z,1.1
2022-08-01T13:41:39.307Z,1.2
2022-08-01T13:43:58.422Z,0.6
2022-08-01T13:45:40.977Z,0.8
2022-08-01T13:47:40.986Z,0.7
2022-08-01T13:49:41.357Z,0.9
2022-08-01T13:51:41.774Z,0.8
2022-08-01T13:53:42.340Z,0.9
2022-08-01T13:55:42.865Z,0.8
2022-08-01T13:57:43.452Z,1
2022-08-01T13:59:44.007Z,1.9
2022-08-01T14:01:45.014Z,0.8
2022-08-01T14:03:45.060Z,0.8
2022-08-01T14:05:46.011Z,0.9
2022-08-01T14:07:48.584Z,1
2022-08-01T14:10:18.115Z,1.1
2022-08-01T14:11:47.168Z,1.1
2022-08-01T14:13:47.688Z,0.8
2022-08-01T14:15:48.185Z,1.1
2022-08-01T14:17:48.860Z,1.1
2022-08-01T14:19:49.230Z,0.9
2022-08-01T14:21:49.794Z,0.9
2022-08-01T14:23:50.316Z,1.1
2022-08-01T14:26:00.600Z,1.4
2022-08-01T14:27:51.351Z,0.9
2022-08-01T14:30:00.338Z,1
2022-08-01T14:31:52.335Z,1
2022-08-01T14:33:52.808Z,0.8
2022-08-01T14:36:01.782Z,1.1
2022-08-01T14:37:53.950Z,1.3
2022-08-01T14:39:54.786Z,0.9
2022-08-01T14:41:54.837Z,0.9
2022-08-01T14:43:55.384Z,1.1
2022-08-01T14:45:55.860Z,1.1
2022-08-01T14:47:56.532Z,1
2022-08-01T14:49:56.851Z,1.1
2022-08-01T14:51:57.342Z,1
2022-08-01T14:53:57.833Z,1.1
2022-08-01T14:55:58.397Z,0.8
2022-08-01T14:57:58.871Z,1
2022-08-01T14:59:59.451Z,1.1
2022-08-01T15:01:59.813Z,0.7
2022-08-01T15:04:00.310Z,0.9
2022-08-01T15:06:00.886Z,1
2022-08-01T15:08:01.376Z,1.7
2022-08-01T15:10:03.158Z,1
2022-08-01T15:12:02.850Z,1
2022-08-01T15:14:03.540Z,0.9
2022-08-01T15:16:03.735Z,1
2022-08-01T15:18:04.415Z,1.1
2022-08-01T15:20:06.912Z,1
2022-08-01T15:22:05.269Z,1
2022-08-01T15:24:06.350Z,0.9
2022-08-01T15:26:05.963Z,1.1
2022-08-01T15:28:06.480Z,1
2022-08-01T15:30:07.798Z,1.2
2022-08-01T15:32:07.963Z,1.1
2022-08-01T15:34:07.873Z,1.1
2022-08-01T15:36:08.359Z,1.2
2022-08-01T15:38:08.930Z,1
2022-08-01T15:40:10.790Z,0.8
2022-08-01T15:42:12.316Z,1.4
2022-08-01T15:44:10.310Z,1.2
2022-08-01T15:46:10.811Z,1.2
2022-08-01T15:48:11.575Z,2.7
2022-08-01T15:50:11.809Z,2
2022-08-01T15:52:21.502Z,1.4
2022-08-01T15:54:14.771Z,1.3
2022-08-01T15:56:13.336Z,1.8
2022-08-01T15:58:13.670Z,1.7
2022-08-01T16:00:32.896Z,1.4
2022-08-01T16:02:14.719Z,2
2022-08-01T16:04:15.771Z,1.7
2022-08-01T16:06:15.680Z,1.8
2022-08-01T16:08:16.373Z,1.7
2022-08-01T16:10:16.909Z,2.1
2022-08-01T16:12:17.080Z,2
2022-08-01T16:14:17.522Z,2.1
2022-08-01T16:16:18.041Z,1.6
2022-08-01T16:18:18.538Z,1.5
2022-08-01T16:20:18.987Z,1.8
2022-08-01T16:22:19.382Z,1.5
2022-08-01T16:24:19.779Z,1.3
2022-08-01T16:26:27.200Z,1.4
2022-08-01T16:28:21.139Z,1.9
2022-08-01T16:30:21.338Z,1.8
2022-08-01T16:32:25.755Z,2.1
2022-08-01T16:34:22.310Z,2.4
2022-08-01T16:36:24.723Z,2.7
2022-08-01T16:38:23.159Z,1.9
2022-08-01T16:40:23.582Z,2.4
2022-08-01T16:42:24.000Z,2.4
2022-08-01T16:44:28.629Z,3.6
2022-08-01T16:46:25.550Z,4.5
2022-08-01T16:48:25.583Z,4.1
2022-08-01T16:50:28.755Z,3.9
2022-08-01T16:52:28.598Z,4.4
2022-08-01T16:54:26.880Z,4.4
2022-08-01T16:56:27.263Z,4.2
2022-08-01T16:58:28.257Z,3.3
2022-08-01T17:00:28.173Z,3.6
2022-08-01T17:02:28.652Z,4
2022-08-01T17:04:29.340Z,3.5
2022-08-01T17:06:29.527Z,3
2022-08-01T17:08:29.918Z,4.5
2022-08-01T17:10:30.746Z,4.3
2022-08-01T17:12:31.339Z,3.5
2022-08-01T17:14:31.209Z,2.8
2022-08-01T17:16:31.726Z,2.7
2022-08-01T17:18:32.217Z,3
2022-08-01T17:20:32.568Z,3.1
2022-08-01T17:22:32.999Z,2.7
2022-08-01T17:24:33.442Z,5.3
2022-08-01T17:26:34.379Z,3.1
2022-08-01T17:28:34.371Z,3
2022-08-01T17:30:35.007Z,2.6
2022-08-01T17:32:35.200Z,3.1
2022-08-01T17:34:35.776Z,3.4
2022-08-01T17:36:36.021Z,4.4
2022-08-01T17:38:36.578Z,4.3
2022-08-01T17:40:40.455Z,3.5
2022-08-01T17:42:37.643Z,4
2022-08-01T17:44:38.122Z,3.5
2022-08-01T17:46:38.204Z,3.9
2022-08-01T17:48:38.800Z,3.4
2022-08-01T17:50:39.107Z,3.6
2022-08-01T17:52:39.483Z,3.8
2022-08-01T17:54:39.981Z,4.2
2022-08-01T17:56:45.635Z,3.8
2022-08-01T17:58:50.588Z,4.1
2022-08-01T18:00:41.154Z,4.1
2022-08-01T18:02:41.591Z,4.8
2022-08-01T18:04:44.235Z,4.2
2022-08-01T18:06:58.543Z,4.4
2022-08-01T18:08:43.436Z,4.6
2022-08-01T18:10:43.448Z,4.3
2022-08-01T18:12:43.783Z,3.8
2022-08-01T18:14:44.458Z,6.1
2022-08-01T18:16:44.554Z,13.4
2022-08-01T18:18:44.932Z,5.3
2022-08-01T18:20:46.325Z,6
2022-08-01T18:22:45.734Z,6
2022-08-01T18:24:46.147Z,5.7
2022-08-01T18:26:46.618Z,6.6
2022-08-01T18:28:47.111Z,6.6
2022-08-01T18:30:47.403Z,7
2022-08-01T18:32:47.771Z,6.3
2022-08-01T18:34:48.208Z,6.6
2022-08-01T18:36:48.604Z,6.3
2022-08-01T18:38:49.075Z,6.5
2022-08-01T18:40:49.370Z,5.7
2022-08-01T18:42:49.782Z,4.8
2022-08-01T18:44:50.577Z,4.1
2022-08-01T18:46:50.512Z,4.5
2022-08-01T18:48:51.160Z,4.5
2022-08-01T18:50:51.361Z,4.4
2022-08-01T18:52:51.740Z,4.8
2022-08-01T18:54:52.263Z,6.1
2022-08-01T18:56:52.568Z,5.3
2022-08-01T18:58:53.675Z,5.3
2022-08-01T19:00:53.294Z,3.4
2022-08-01T19:02:53.564Z,3.3
2022-08-01T19:04:53.969Z,3.4
2022-08-01T19:06:54.336Z,4.4
2022-08-01T19:08:57.048Z,3.9
2022-08-01T19:10:55.173Z,3.5
2022-08-01T19:12:55.441Z,3.3
2022-08-01T19:14:55.766Z,3.4
2022-08-01T19:16:56.314Z,3.2
2022-08-01T19:18:56.580Z,2.9
2022-08-01T19:20:56.889Z,3
2022-08-01T19:22:57.260Z,3.3
2022-08-01T19:24:57.624Z,3.4
2022-08-01T19:26:59.333Z,3.1
2022-08-01T19:29:02.524Z,3
2022-08-01T19:31:00.275Z,2.6
2022-08-01T19:32:59.131Z,3
2022-08-01T19:35:03.980Z,2.9
2022-08-01T19:36:59.759Z,3.1
2022-08-01T19:39:01.105Z,3.1
2022-08-01T19:41:00.846Z,3.6
2022-08-01T19:43:02.333Z,4.2
2022-08-01T19:45:02.350Z,4.2
2022-08-01T19:47:01.597Z,4.1
2022-08-01T19:49:02.027Z,3.9
2022-08-01T19:51:03.164Z,4.9
2022-08-01T19:53:03.027Z,4.3
2022-08-01T19:55:05.161Z,5.1
2022-08-01T19:57:05.632Z,4.4
2022-08-01T19:59:04.923Z,3.1
2022-08-01T20:01:04.910Z,3.1
2022-08-01T20:03:04.869Z,3.7
2022-08-01T20:05:05.613Z,4.4
2022-08-01T20:07:05.505Z,4
2022-08-01T20:09:05.905Z,4.3
2022-08-01T20:11:11.785Z,3.9
2022-08-01T20:13:07.144Z,4.1
2022-08-01T20:15:07.694Z,4.6
2022-08-01T20:17:06.752Z,4.2
2022-08-01T20:19:07.025Z,4.4
2022-08-01T20:21:10.511Z,3.8
2022-08-01T20:23:10.154Z,3.5
2022-08-01T20:25:09.087Z,3.3
2022-08-01T20:27:10.212Z,2.9
2022-08-01T20:29:10.782Z,2.7
2022-08-01T20:31:09.525Z,2.9
2022-08-01T20:33:10.666Z,2.3
2022-08-01T20:35:09.852Z,2.8
2022-08-01T20:37:12.498Z,3.1
2022-08-01T20:39:12.421Z,3.3
2022-08-01T20:41:11.293Z,3.5
2022-08-01T20:43:12.202Z,3.1
2022-08-01T20:45:14.238Z,2.9
2022-08-01T20:47:13.863Z,2.7
2022-08-01T20:49:12.011Z,2.7
2022-08-01T20:51:12.404Z,2.7
2022-08-01T20:53:12.620Z,3
2022-08-01T20:55:12.878Z,3.2
2022-08-01T20:57:20.725Z,3
2022-08-01T20:59:40.150Z,3.4
2022-08-01T21:01:16.941Z,4.9
2022-08-01T21:03:19.466Z,5.2
2022-08-01T21:05:23.637Z,4.5
2022-08-01T21:07:23.454Z,3.8
2022-08-01T21:09:20.607Z,3.4
2022-08-01T21:11:19.624Z,3.2
2022-08-01T21:13:21.379Z,2.8
2022-08-01T21:15:26.629Z,2.5
2022-08-01T21:17:21.988Z,2.4
2022-08-01T21:19:25.039Z,2.2
2022-08-01T21:21:19.430Z,2
2022-08-01T21:23:24.149Z,2
2022-08-01T21:25:22.103Z,1.7
2022-08-01T21:27:21.285Z,1.8
2022-08-01T21:29:19.445Z,2.1
2022-08-01T21:31:21.967Z,1.6
2022-08-01T21:33:19.248Z,1.7
2022-08-01T21:35:21.707Z,1.6
2022-08-01T21:37:19.585Z,1.6
2022-08-01T21:39:20.432Z,1.5
2022-08-01T21:42:03.411Z,1.6
2022-08-01T21:43:22.155Z,1.3
2022-08-01T21:45:23.512Z,1.6
2022-08-01T21:47:22.956Z,1.5
2022-08-01T21:49:21.344Z,1.3
2022-08-01T21:51:34.920Z,1.4
2022-08-01T21:53:32.401Z,1.4
2022-08-01T21:55:34.026Z,1.4
2022-08-01T21:57:34.075Z,1.5
2022-08-01T21:59:31.831Z,1.4
2022-08-01T22:01:31.511Z,1.2
2022-08-01T22:03:29.579Z,1.4
2022-08-01T22:05:50.561Z,1.4
2022-08-01T22:07:26.777Z,1.5
2022-08-01T22:09:24.458Z,1.4
2022-08-01T22:11:29.891Z,1.4
2022-08-01T22:13:25.035Z,1.3
2022-08-01T22:15:44.791Z,1.5
2022-08-01T22:17:25.701Z,1.4
2022-08-01T22:19:34.105Z,1.6
2022-08-01T22:21:26.812Z,1.4
2022-08-01T22:23:27.254Z,1.5
2022-08-01T22:25:28.629Z,1.5
2022-08-01T22:28:02.473Z,1.6
2022-08-01T22:29:28.092Z,1.3
2022-08-01T22:31:27.694Z,1.5
2022-08-01T22:33:27.817Z,1.1
2022-08-01T22:35:28.387Z,1.3
2022-08-01T22:37:56.527Z,1.5
2022-08-01T22:39:28.586Z,1.5
2022-08-01T22:42:01.698Z,1.4
2022-08-01T22:43:34.432Z,1.2
2022-08-01T22:45:38.543Z,1.4
2022-08-01T22:47:46.647Z,1.3
2022-08-01T22:49:34.468Z,1.2
2022-08-01T22:51:41.084Z,1.4
2022-08-01T22:53:39.207Z,1.2
2022-08-01T22:55:59.214Z,1.3
2022-08-01T22:57:39.873Z,1.3
2022-08-01T22:59:41.778Z,1.4
2022-08-01T23:01:33.833Z,1.3
2022-08-01T23:03:34.027Z,1.7
2022-08-01T23:05:39.928Z,1.4
2022-08-01T23:07:34.107Z,1.4
2022-08-01T23:09:53.872Z,1.2
2022-08-01T23:11:33.747Z,1.2
2022-08-01T23:13:34.021Z,1
2022-08-01T23:15:34.690Z,1.2
2022-08-01T23:17:34.286Z,1.3
2022-08-01T23:19:37.258Z,1.3
2022-08-01T23:21:39.996Z,1.3
2022-08-01T23:23:36.716Z,1.3
2022-08-01T23:25:36.389Z,1.4
2022-08-01T23:27:51.860Z,1.3
2022-08-01T23:29:35.784Z,1.3
2022-08-01T23:31:58.197Z,1.3
2022-08-01T23:33:36.366Z,1.4
2022-08-01T23:35:39.133Z,1.4
2022-08-01T23:37:36.849Z,1.2
2022-08-01T23:39:37.434Z,1.3
2022-08-01T23:41:58.052Z,1.3
2022-08-01T23:43:37.554Z,1.3
2022-08-01T23:46:04.398Z,1.3
2022-08-01T23:47:38.170Z,1.2
2022-08-01T23:49:53.607Z,1.3
2022-08-01T23:51:39.012Z,1.2
2022-08-01T23:53:39.049Z,1.3
2022-08-01T23:55:39.860Z,1
2022-08-01T23:57:41.199Z,1.3
2022-08-01T23:59:53.674Z,1.2
